Observation data for Northwest Lubbock on 07/08/2018      Previous  Date  Next       Current Mesonet Observations  Soil Data  Daily Summary Page  Observations in Plain Language
KLBW 080500Z 11001KT 22/15 A3021 RMK A01 T02180150  RH  068%=      5-min Rain = 0
KLBW 080505Z 11001KT 22/16 A3021 RMK A01 T02200158  RH  071%=      5-min Rain = 0
KLBW 080510Z 11002KT 23/16 A3021 RMK A01 T02250158  RH  069%=      5-min Rain = 0
KLBW 080515Z 10002KT 23/16 A3021 RMK A01 T02250163  RH  072%=      5-min Rain = 0
KLBW 080520Z 10002KT 22/16 A302 RMK A01 T02240163  RH  072%=      5-min Rain = 0
KLBW 080525Z 10002KT 22/17 A302 RMK A01 T02230165  RH  073%=      5-min Rain = 0
KLBW 080530Z 10002KT 22/17 A3021 RMK A01 T02220167  RH  075%=      5-min Rain = 0
KLBW 080535Z 09002KT 22/17 A302 RMK A01 T02210170  RH  077%=      5-min Rain = 0
KLBW 080540Z 08002KT 22/17 A302 RMK A01 T02190168  RH  076%=      5-min Rain = 0
KLBW 080545Z 08002KT 22/16 A302 RMK A01 T02170164  RH  075%=      5-min Rain = 0
KLBW 080550Z 08002KT 22/17 A302 RMK A01 T02180165  RH  076%=      5-min Rain = 0
KLBW 080555Z 09002KT 22/17 A302 RMK A01 T02200169  RH  076%=      5-min Rain = 0
KLBW 080600Z 09003KT 22/17 A302 RMK A01 T02210170  RH  076%=      5-min Rain = 0
KLBW 080605Z 09003KT 22/17 A302 RMK A01 T02220169  RH  076%=      5-min Rain = 0
KLBW 080610Z 09003KT 22/17 A302 RMK A01 T02220167  RH  074%=      5-min Rain = 0
KLBW 080615Z 09002KT 22/17 A302 RMK A01 T02240165  RH  073%=      5-min Rain = 0
KLBW 080620Z 09002KT 22/16 A302 RMK A01 T02240164  RH  072%=      5-min Rain = 0
KLBW 080625Z 09002KT 22/17 A302 RMK A01 T02230167  RH  074%=      5-min Rain = 0
KLBW 080630Z 08002KT 22/16 A302 RMK A01 T02210162  RH  073%=      5-min Rain = 0
KLBW 080635Z 07002KT 22/16 A302 RMK A01 T02210163  RH  073%=      5-min Rain = 0
KLBW 080640Z 08002KT 22/16 A302 RMK A01 T02200164  RH  074%=      5-min Rain = 0
KLBW 080645Z 08002KT 22/16 A302 RMK A01 T02200164  RH  074%=      5-min Rain = 0
KLBW 080650Z 08001KT 22/17 A302 RMK A01 T02190165  RH  075%=      5-min Rain = 0
KLBW 080655Z 14001KT 22/17 A302 RMK A01 T02170165  RH  076%=      5-min Rain = 0
KLBW 080700Z 18003KT 21/16 A302 RMK A01 T02120158  RH  075%=      5-min Rain = 0
KLBW 080705Z 15005KT 22/16 A3021 RMK A01 T02170158  RH  073%=      5-min Rain = 0
KLBW 080710Z 16006KT 23/15 A3021 RMK A01 T02300153  RH  065%=      5-min Rain = 0
KLBW 080715Z 16005KT 24/15 A3021 RMK A01 T02360151  RH  062%=      5-min Rain = 0
KLBW 080720Z 14004KT 24/15 A3021 RMK A01 T02350152  RH  062%=      5-min Rain = 0
KLBW 080725Z 15007KT 24/15 A3021 RMK A01 T02360147  RH  060%=      5-min Rain = 0
KLBW 080730Z 15006KT 24/15 A3021 RMK A01 T02370147  RH  060%=      5-min Rain = 0
KLBW 080735Z 15005KT 24/15 A3021 RMK A01 T02360147  RH  060%=      5-min Rain = 0
KLBW 080740Z 17004KT 23/15 A3021 RMK A01 T02330148  RH  061%=      5-min Rain = 0
KLBW 080745Z 17005KT 23/15 A3021 RMK A01 T02300148  RH  063%=      5-min Rain = 0
KLBW 080750Z 17004KT 23/15 A3021 RMK A01 T02290148  RH  063%=      5-min Rain = 0
KLBW 080755Z 18004KT 23/15 A3021 RMK A01 T02280149  RH  064%=      5-min Rain = 0
KLBW 080800Z 19003KT 23/15 A3021 RMK A01 T02270149  RH  064%=      5-min Rain = 0
KLBW 080805Z 20002KT 23/15 A3021 RMK A01 T02260149  RH  065%=      5-min Rain = 0
KLBW 080810Z 23002KT 22/15 A3021 RMK A01 T02230149  RH  066%=      5-min Rain = 0
KLBW 080815Z 24002KT 22/15 A3021 RMK A01 T02190149  RH  067%=      5-min Rain = 0
KLBW 080820Z 24002KT 22/15 A3021 RMK A01 T02170149  RH  068%=      5-min Rain = 0
KLBW 080825Z 24003KT 22/15 A3021 RMK A01 T02160150  RH  069%=      5-min Rain = 0
KLBW 080830Z 23002KT 22/15 A3021 RMK A01 T02150150  RH  069%=      5-min Rain = 0
KLBW 080835Z 25001KT 21/15 A302 RMK A01 T02140149  RH  070%=      5-min Rain = 0
KLBW 080840Z 28002KT 21/15 A302 RMK A01 T02120148  RH  070%=      5-min Rain = 0
KLBW 080845Z 29002KT 21/15 A302 RMK A01 T02100148  RH  071%=      5-min Rain = 0
KLBW 080850Z 31002KT 21/15 A302 RMK A01 T02100150  RH  072%=      5-min Rain = 0
KLBW 080855Z 31002KT 21/15 A302 RMK A01 T02130152  RH  071%=      5-min Rain = 0
KLBW 080900Z 31001KT 21/15 A302 RMK A01 T02130151  RH  071%=      5-min Rain = 0
KLBW 080905Z 31002KT 21/15 A302 RMK A01 T02090149  RH  072%=      5-min Rain = 0
KLBW 080910Z 31002KT 21/15 A302 RMK A01 T02070150  RH  073%=      5-min Rain = 0
KLBW 080915Z 30003KT 21/15 A302 RMK A01 T02070152  RH  074%=      5-min Rain = 0
KLBW 080920Z 30002KT 21/15 A302 RMK A01 T02060151  RH  074%=      5-min Rain = 0
KLBW 080925Z 33003KT 21/15 A302 RMK A01 T02070154  RH  075%=      5-min Rain = 0
KLBW 080930Z 33003KT 21/16 A302 RMK A01 T02110159  RH  076%=      5-min Rain = 0
KLBW 080935Z 33003KT 21/16 A302 RMK A01 T02120161  RH  076%=      5-min Rain = 0
KLBW 080940Z 32003KT 21/16 A302 RMK A01 T02100163  RH  078%=      5-min Rain = 0
KLBW 080945Z 31003KT 21/16 A302 RMK A01 T02080164  RH  080%=      5-min Rain = 0
KLBW 080950Z 32003KT 21/16 A302 RMK A01 T02050164  RH  081%=      5-min Rain = 0
KLBW 080955Z 32003KT 21/17 A302 RMK A01 T02050165  RH  082%=      5-min Rain = 0
KLBW 081000Z 32003KT 21/17 A302 RMK A01 T02050166  RH  082%=      5-min Rain = 0
KLBW 081005Z 32004KT 20/17 A302 RMK A01 T02030165  RH  083%=      5-min Rain = 0
KLBW 081010Z 33004KT 20/17 A302 RMK A01 T02030166  RH  083%=      5-min Rain = 0
KLBW 081015Z 33003KT 20/17 A302 RMK A01 T02030166  RH  084%=      5-min Rain = 0
KLBW 081020Z 33003KT 20/17 A302 RMK A01 T02020167  RH  084%=      5-min Rain = 0
KLBW 081025Z 33002KT 20/17 A302 RMK A01 T02020168  RH  085%=      5-min Rain = 0
KLBW 081030Z 33002KT 20/17 A302 RMK A01 T02010167  RH  085%=      5-min Rain = 0
KLBW 081035Z 33002KT 20/17 A302 RMK A01 T02000167  RH  085%=      5-min Rain = 0
KLBW 081040Z 33000KT 20/16 A302 RMK A01 T01950163  RH  086%=      5-min Rain = 0
KLBW 081045Z 21001KT 19/16 A302 RMK A01 T01930163  RH  087%=      5-min Rain = 0
KLBW 081050Z 23001KT 19/17 A302 RMK A01 T01930165  RH  088%=      5-min Rain = 0
KLBW 081055Z 23001KT 19/17 A302 RMK A01 T01920165  RH  088%=      5-min Rain = 0
KLBW 081100Z 23000KT 19/16 A302 RMK A01 T01910162  RH  088%=      5-min Rain = 0
KLBW 081105Z 23001KT 19/16 A302 RMK A01 T01910162  RH  087%=      5-min Rain = 0
KLBW 081110Z 23000KT 19/16 A302 RMK A01 T01910162  RH  088%=      5-min Rain = 0
KLBW 081115Z 31000KT 19/16 A302 RMK A01 T01920163  RH  088%=      5-min Rain = 0
KLBW 081120Z 34002KT 19/16 A302 RMK A01 T01920164  RH  088%=      5-min Rain = 0
KLBW 081125Z 34002KT 19/16 A302 RMK A01 T01920164  RH  088%=      5-min Rain = 0
KLBW 081130Z 33003KT 19/17 A302 RMK A01 T01940168  RH  089%=      5-min Rain = 0
KLBW 081135Z 33003KT 20/17 A302 RMK A01 T01950169  RH  089%=      5-min Rain = 0
KLBW 081140Z 33003KT 20/17 A3021 RMK A01 T01970171  RH  089%=      5-min Rain = 0
KLBW 081145Z 33003KT 20/17 A3021 RMK A01 T01980171  RH  089%=      5-min Rain = 0
KLBW 081150Z 32002KT 20/17 A3021 RMK A01 T01970170  RH  089%=      5-min Rain = 0
KLBW 081155Z 32003KT 20/17 A3021 RMK A01 T01970170  RH  089%=      5-min Rain = 0
KLBW 081200Z 33003KT 20/17 A3021 RMK A01 T01980171  RH  089%=      5-min Rain = 0
KLBW 081205Z 33002KT 20/17 A3021 RMK A01 T02000172  RH  088%=      5-min Rain = 0
KLBW 081210Z 33002KT 20/17 A3022 RMK A01 T02000172  RH  088%=      5-min Rain = 0
KLBW 081215Z 33001KT 20/17 A3022 RMK A01 T02000172  RH  088%=      5-min Rain = 0
KLBW 081220Z 33000KT 20/17 A3022 RMK A01 T01990170  RH  088%=      5-min Rain = 0
KLBW 081225Z 33000KT 20/17 A3022 RMK A01 T01990171  RH  088%=      5-min Rain = 0
KLBW 081230Z 00000KT 20/17 A3022 RMK A01 T01990171  RH  088%=      5-min Rain = 0
KLBW 081235Z 00000KT 20/17 A3022 RMK A01 T02000171  RH  088%=      5-min Rain = 0
KLBW 081240Z 00000KT 20/17 A3022 RMK A01 T02010171  RH  087%=      5-min Rain = 0
KLBW 081245Z 00000KT 20/17 A3022 RMK A01 T02030173  RH  087%=      5-min Rain = 0
KLBW 081250Z 35000KT 21/17 A3022 RMK A01 T02050174  RH  087%=      5-min Rain = 0
KLBW 081255Z 02001KT 21/18 A3022 RMK A01 T02070176  RH  087%=      5-min Rain = 0
KLBW 081300Z 00002KT 21/18 A3022 RMK A01 T02100175  RH  084%=      5-min Rain = 0
KLBW 081305Z 00002KT 21/17 A3022 RMK A01 T02140174  RH  083%=      5-min Rain = 0
KLBW 081310Z 01002KT 22/17 A3022 RMK A01 T02150174  RH  081%=      5-min Rain = 0
KLBW 081315Z 02001KT 22/18 A3022 RMK A01 T02170175  RH  081%=      5-min Rain = 0
KLBW 081320Z 02001KT 22/18 A3022 RMK A01 T02190175  RH  080%=      5-min Rain = 0
KLBW 081325Z 00003KT 22/17 A3022 RMK A01 T02190174  RH  079%=      5-min Rain = 0
KLBW 081330Z 02002KT 22/17 A3023 RMK A01 T02200173  RH  079%=      5-min Rain = 0
KLBW 081335Z 02002KT 22/17 A3023 RMK A01 T02210172  RH  078%=      5-min Rain = 0
KLBW 081340Z 03002KT 22/17 A3023 RMK A01 T02230173  RH  077%=      5-min Rain = 0
KLBW 081345Z 04001KT 23/17 A3023 RMK A01 T02250173  RH  076%=      5-min Rain = 0
KLBW 081350Z 06001KT 23/17 A3023 RMK A01 T02280172  RH  075%=      5-min Rain = 0
KLBW 081355Z 03002KT 23/17 A3023 RMK A01 T02290169  RH  072%=      5-min Rain = 0
KLBW 081400Z 04002KT 23/17 A3023 RMK A01 T02310169  RH  072%=      5-min Rain = 0
KLBW 081405Z 03001KT 23/17 A3023 RMK A01 T02330169  RH  071%=      5-min Rain = 0
KLBW 081410Z 04002KT 23/17 A3023 RMK A01 T02340169  RH  070%=      5-min Rain = 0
KLBW 081415Z 05003KT 24/17 A3024 RMK A01 T02350167  RH  069%=      5-min Rain = 0
KLBW 081420Z 05002KT 24/17 A3024 RMK A01 T02370165  RH  067%=      5-min Rain = 0
KLBW 081425Z 03003KT 24/16 A3024 RMK A01 T02400164  RH  066%=      5-min Rain = 0
KLBW 081430Z 02003KT 24/17 A3024 RMK A01 T02420165  RH  065%=      5-min Rain = 0
KLBW 081435Z 04003KT 24/16 A3024 RMK A01 T02430164  RH  064%=      5-min Rain = 0
KLBW 081440Z 01003KT 24/16 A3024 RMK A01 T02440163  RH  064%=      5-min Rain = 0
KLBW 081445Z 02003KT 25/16 A3024 RMK A01 T02460164  RH  063%=      5-min Rain = 0
KLBW 081450Z 02002KT 25/16 A3024 RMK A01 T02490163  RH  062%=      5-min Rain = 0
KLBW 081455Z 04002KT 25/16 A3024 RMK A01 T02490160  RH  061%=      5-min Rain = 0
KLBW 081500Z 05003KT 25/16 A3024 RMK A01 T02500161  RH  061%=      5-min Rain = 0
KLBW 081505Z 07002KT 25/16 A3024 RMK A01 T02530162  RH  060%=      5-min Rain = 0
KLBW 081510Z 06001KT 25/16 A3024 RMK A01 T02540162  RH  060%=      5-min Rain = 0
KLBW 081515Z 07002KT 26/16 A3024 RMK A01 T02590163  RH  058%=      5-min Rain = 0
KLBW 081520Z 08003KT 26/16 A3024 RMK A01 T02610164  RH  058%=      5-min Rain = 0
KLBW 081525Z 13002KT 26/16 A3023 RMK A01 T02630163  RH  057%=      5-min Rain = 0
KLBW 081530Z 08003KT 27/16 A3023 RMK A01 T02670163  RH  056%=      5-min Rain = 0
KLBW 081535Z 08004KT 27/16 A3023 RMK A01 T02700163  RH  054%=      5-min Rain = 0
KLBW 081540Z 11003KT 27/16 A3023 RMK A01 T02720160  RH  053%=      5-min Rain = 0
KLBW 081545Z 17003KT 27/16 A3023 RMK A01 T02740157  RH  051%=      5-min Rain = 0
KLBW 081550Z 12003KT 28/16 A3023 RMK A01 T02780158  RH  050%=      5-min Rain = 0
KLBW 081555Z 11004KT 29/16 A3023 RMK A01 T02850157  RH  048%=      5-min Rain = 0
KLBW 081600Z 14004KT 28/16 A3023 RMK A01 T02820155  RH  048%=      5-min Rain = 0
KLBW 081605Z 21003KT 28/15 A3023 RMK A01 T02800153  RH  048%=      5-min Rain = 0
KLBW 081610Z 15003KT 29/15 A3023 RMK A01 T02850154  RH  047%=      5-min Rain = 0
KLBW 081615Z 09004KT 28/15 A3023 RMK A01 T02840151  RH  046%=      5-min Rain = 0
KLBW 081620Z 08003KT 28/15 A3023 RMK A01 T02840152  RH  047%=      5-min Rain = 0
KLBW 081625Z 10003KT 29/15 A3023 RMK A01 T02920153  RH  045%=      5-min Rain = 0
KLBW 081630Z 12002KT 29/15 A3023 RMK A01 T02920150  RH  044%=      5-min Rain = 0
KLBW 081635Z 16003KT 29/15 A3023 RMK A01 T02930151  RH  044%=      5-min Rain = 0
KLBW 081640Z 19004KT 29/15 A3023 RMK A01 T02920149  RH  044%=      5-min Rain = 0
KLBW 081645Z 18004KT 29/15 A3023 RMK A01 T02910148  RH  044%=      5-min Rain = 0
KLBW 081650Z 15004KT 29/15 A3023 RMK A01 T02920145  RH  043%=      5-min Rain = 0
KLBW 081655Z 12003KT 30/15 A3023 RMK A01 T02950146  RH  042%=      5-min Rain = 0
KLBW 081700Z 13004KT 29/15 A3023 RMK A01 T02930147  RH  043%=      5-min Rain = 0
KLBW 081705Z 12002KT 29/15 A3023 RMK A01 T02910147  RH  043%=      5-min Rain = 0
KLBW 081710Z 13004KT 29/15 A3023 RMK A01 T02930148  RH  043%=      5-min Rain = 0
KLBW 081715Z 12003KT 30/15 A3022 RMK A01 T02990150  RH  042%=      5-min Rain = 0
KLBW 081720Z 13003KT 30/15 A3022 RMK A01 T02990150  RH  042%=      5-min Rain = 0
KLBW 081725Z 00002KT 30/15 A3022 RMK A01 T02950149  RH  043%=      5-min Rain = 0
KLBW 081730Z 09006KT 30/14 A3022 RMK A01 T03020142  RH  039%=      5-min Rain = 0
KLBW 081735Z 07006KT 31/13 A3022 RMK A01 T03080134  RH  036%=      5-min Rain = 0
KLBW 081740Z 07004G9KT 30/13 A3022 RMK A01 T02990134  RH  038%=      5-min Rain = 0
KLBW 081745Z 09007KT 30/13 A3022 RMK A01 T03010134  RH  038%=      5-min Rain = 0
KLBW 081750Z 10006KT 31/13 A3022 RMK A01 T03070133  RH  036%=      5-min Rain = 0
KLBW 081755Z 14004KT 31/13 A3022 RMK A01 T03110134  RH  035%=      5-min Rain = 0
KLBW 081800Z 09005KT 31/13 A3022 RMK A01 T03100132  RH  035%=      5-min Rain = 0
KLBW 081805Z 08002G8KT 31/13 A3021 RMK A01 T03050133  RH  036%=      5-min Rain = 0
KLBW 081810Z 09006KT 30/14 A3021 RMK A01 T03010136  RH  038%=      5-min Rain = 0
KLBW 081815Z 10007KT 30/14 A3021 RMK A01 T03010135  RH  038%=      5-min Rain = 0
KLBW 081820Z 10005KT 31/13 A3021 RMK A01 T03050134  RH  037%=      5-min Rain = 0
KLBW 081825Z 05002KT 30/14 A302 RMK A01 T03010135  RH  038%=      5-min Rain = 0
KLBW 081830Z 10004KT 31/14 A302 RMK A01 T03080138  RH  037%=      5-min Rain = 0
KLBW 081835Z 12004KT 31/14 A302 RMK A01 T03140137  RH  036%=      5-min Rain = 0
KLBW 081840Z 05005G10KT 31/13 A302 RMK A01 T03090133  RH  036%=      5-min Rain = 0
KLBW 081845Z 12003KT 31/13 A302 RMK A01 T03070132  RH  036%=      5-min Rain = 0
KLBW 081850Z 16004G10KT 32/13 A3019 RMK A01 T03160130  RH  034%=      5-min Rain = 0
KLBW 081855Z 05006KT 31/13 A3019 RMK A01 T03100125  RH  034%=      5-min Rain = 0
KLBW 081900Z 01004KT 31/13 A3019 RMK A01 T03070128  RH  035%=      5-min Rain = 0
KLBW 081905Z 09006G11KT 31/12 A3019 RMK A01 T03140120  RH  032%=      5-min Rain = 0
KLBW 081910Z 06007KT 31/12 A3019 RMK A01 T03120115  RH  031%=      5-min Rain = 0
KLBW 081915Z 06004KT 31/12 A3019 RMK A01 T03120117  RH  031%=      5-min Rain = 0
KLBW 081920Z 07005G11KT 31/11 A3019 RMK A01 T03090114  RH  031%=      5-min Rain = 0
KLBW 081925Z 07006KT 30/12 A3019 RMK A01 T03020119  RH  034%=      5-min Rain = 0
KLBW 081930Z 10007KT 30/12 A3019 RMK A01 T02990122  RH  035%=      5-min Rain = 0
KLBW 081935Z 12007G12KT 30/13 A3018 RMK A01 T02990125  RH  036%=      5-min Rain = 0
KLBW 081940Z 13009KT 30/13 A3018 RMK A01 T02970126  RH  036%=      5-min Rain = 0
KLBW 081945Z 13008G13KT 30/13 A3018 RMK A01 T02950129  RH  037%=      5-min Rain = 0
KLBW 081950Z 17012G19KT 28/14 A3018 RMK A01 T02820143  RH  045%=      5-min Rain = 0
KLBW 081955Z 17012G19KT 27/15 A3018 RMK A01 T02740145  RH  047%=      5-min Rain = 0
KLBW 082000Z 17012G17KT 28/15 A3018 RMK A01 T02760146  RH  047%=      5-min Rain = 0
KLBW 082005Z 16009KT 28/15 A3017 RMK A01 T02780145  RH  046%=      5-min Rain = 0
KLBW 082010Z 15009KT 28/14 A3017 RMK A01 T02800144  RH  045%=      5-min Rain = 0
KLBW 082015Z 15010KT 28/14 A3017 RMK A01 T02780144  RH  046%=      5-min Rain = 0
KLBW 082020Z 15009KT 28/14 A3017 RMK A01 T02770141  RH  045%=      5-min Rain = 0
KLBW 082025Z 14008KT 28/14 A3017 RMK A01 T02810139  RH  044%=      5-min Rain = 0
KLBW 082030Z 16008KT 29/14 A3017 RMK A01 T02850138  RH  042%=      5-min Rain = 0
KLBW 082035Z 16008KT 29/14 A3017 RMK A01 T02890135  RH  041%=      5-min Rain = 0
KLBW 082040Z 15008KT 29/13 A3017 RMK A01 T02920134  RH  040%=      5-min Rain = 0
KLBW 082045Z 15006KT 30/14 A3017 RMK A01 T02980137  RH  039%=      5-min Rain = 0
KLBW 082050Z 14007KT 30/14 A3017 RMK A01 T03030141  RH  039%=      5-min Rain = 0
KLBW 082055Z 17008KT 30/14 A3017 RMK A01 T03020139  RH  039%=      5-min Rain = 0
KLBW 082100Z 17006KT 31/14 A3016 RMK A01 T03070140  RH  038%=      5-min Rain = 0
KLBW 082105Z 15005KT 31/14 A3016 RMK A01 T03050137  RH  037%=      5-min Rain = 0
KLBW 082110Z 15006KT 31/14 A3016 RMK A01 T03120137  RH  036%=      5-min Rain = 0
KLBW 082115Z 16007KT 31/14 A3016 RMK A01 T03120135  RH  035%=      5-min Rain = 0
KLBW 082120Z 17006KT 31/13 A3016 RMK A01 T03120134  RH  035%=      5-min Rain = 0
KLBW 082125Z 17007G12KT 32/13 A3015 RMK A01 T03150134  RH  035%=      5-min Rain = 0
KLBW 082130Z 14005KT 32/13 A3015 RMK A01 T03160134  RH  034%=      5-min Rain = 0
KLBW 082135Z 14007KT 32/13 A3015 RMK A01 T03180133  RH  034%=      5-min Rain = 0
KLBW 082140Z 14009KT 32/13 A3015 RMK A01 T03170133  RH  034%=      5-min Rain = 0
KLBW 082145Z 12006KT 31/13 A3015 RMK A01 T03100133  RH  035%=      5-min Rain = 0
KLBW 082150Z 09005KT 32/13 A3014 RMK A01 T03150133  RH  034%=      5-min Rain = 0
KLBW 082155Z 10005G10KT 31/13 A3014 RMK A01 T03120133  RH  035%=      5-min Rain = 0
KLBW 082200Z 14008G14KT 32/13 A3014 RMK A01 T03160132  RH  034%=      5-min Rain = 0
KLBW 082205Z 13007G12KT 32/13 A3014 RMK A01 T03180132  RH  034%=      5-min Rain = 0
KLBW 082210Z 16006KT 32/14 A3014 RMK A01 T03180136  RH  034%=      5-min Rain = 0
KLBW 082215Z 14007G13KT 32/14 A3014 RMK A01 T03220135  RH  034%=      5-min Rain = 0
KLBW 082220Z 12008KT 32/13 A3014 RMK A01 T03210130  RH  032%=      5-min Rain = 0
KLBW 082225Z 11008KT 32/13 A3015 RMK A01 T03190125  RH  032%=      5-min Rain = 0
KLBW 082230Z 11006KT 31/12 A3015 RMK A01 T03110124  RH  033%=      5-min Rain = 0
KLBW 082235Z 11009KT 30/12 A3015 RMK A01 T03040123  RH  034%=      5-min Rain = 0
KLBW 082240Z 07007KT 30/12 A3015 RMK A01 T03010124  RH  035%=      5-min Rain = 0
KLBW 082245Z 08005KT 31/13 A3015 RMK A01 T03080126  RH  034%=      5-min Rain = 0
KLBW 082250Z 11005KT 31/12 A3014 RMK A01 T03120124  RH  033%=      5-min Rain = 0
KLBW 082255Z 09011KT 32/12 A3014 RMK A01 T03180120  RH  031%=      5-min Rain = 0
KLBW 082300Z 09010G16KT 31/11 A3014 RMK A01 T03140114  RH  030%=      5-min Rain = 0
KLBW 082305Z 11008G13KT 31/12 A3014 RMK A01 T03120122  RH  032%=      5-min Rain = 0
KLBW 082310Z 14010G16KT 31/14 A3014 RMK A01 T03120137  RH  036%=      5-min Rain = 0
KLBW 082315Z 15009G15KT 31/13 A3014 RMK A01 T03110134  RH  035%=      5-min Rain = 0
KLBW 082320Z 13011G17KT 31/13 A3014 RMK A01 T03110131  RH  035%=      5-min Rain = 0
KLBW 082325Z 13010G15KT 31/13 A3014 RMK A01 T03060129  RH  035%=      5-min Rain = 0
KLBW 082330Z 14009G14KT 30/13 A3014 RMK A01 T03000126  RH  036%=      5-min Rain = 0
KLBW 082335Z 12007KT 30/13 A3013 RMK A01 T02990126  RH  036%=      5-min Rain = 0
KLBW 082340Z 12007KT 30/12 A3013 RMK A01 T02990124  RH  035%=      5-min Rain = 0
KLBW 082345Z 11009G16KT 30/13 A3013 RMK A01 T02980128  RH  037%=      5-min Rain = 0
KLBW 082350Z 13008KT 30/13 A3013 RMK A01 T02950129  RH  038%=      5-min Rain = 0
KLBW 082355Z 12009G15KT 30/13 A3013 RMK A01 T03000130  RH  037%=      5-min Rain = 0
KLBW 090000Z 12008G14KT 30/13 A3013 RMK A01 T02960131  RH  038%=      5-min Rain = 0
KLBW 090005Z 12008KT 29/13 A3013 RMK A01 T02930131  RH  038%=      5-min Rain = 0
KLBW 090010Z 13009KT 29/14 A3013 RMK A01 T02900135  RH  040%=      5-min Rain = 0
KLBW 090015Z 13007G12KT 29/13 A3013 RMK A01 T02890134  RH  040%=      5-min Rain = 0
KLBW 090020Z 13009KT 29/13 A3013 RMK A01 T02890131  RH  039%=      5-min Rain = 0
KLBW 090025Z 12007KT 29/13 A3013 RMK A01 T02880131  RH  040%=      5-min Rain = 0
KLBW 090030Z 13007KT 29/13 A3013 RMK A01 T02870131  RH  040%=      5-min Rain = 0
KLBW 090035Z 12007KT 29/13 A3013 RMK A01 T02870130  RH  039%=      5-min Rain = 0
KLBW 090040Z 12007KT 29/13 A3013 RMK A01 T02900126  RH  038%=      5-min Rain = 0
KLBW 090045Z 13007KT 29/13 A3013 RMK A01 T02900125  RH  038%=      5-min Rain = 0
KLBW 090050Z 13008KT 29/12 A3013 RMK A01 T02910124  RH  037%=      5-min Rain = 0
KLBW 090055Z 12008KT 29/12 A3013 RMK A01 T02900124  RH  037%=      5-min Rain = 0
KLBW 090100Z 12007KT 29/12 A3014 RMK A01 T02910124  RH  037%=      5-min Rain = 0
KLBW 090105Z 12008KT 29/12 A3014 RMK A01 T02910123  RH  037%=      5-min Rain = 0
KLBW 090110Z 12009KT 29/13 A3014 RMK A01 T02900126  RH  038%=      5-min Rain = 0
KLBW 090115Z 13012KT 29/13 A3015 RMK A01 T02850130  RH  040%=      5-min Rain = 0
KLBW 090120Z 13008KT 28/13 A3015 RMK A01 T02830131  RH  041%=      5-min Rain = 0
KLBW 090125Z 13009G14KT 28/13 A3015 RMK A01 T02810130  RH  041%=      5-min Rain = 0
KLBW 090130Z 14009KT 28/13 A3015 RMK A01 T02780133  RH  043%=      5-min Rain = 0
KLBW 090135Z 13009KT 28/14 A3016 RMK A01 T02750136  RH  044%=      5-min Rain = 0
KLBW 090140Z 13010G15KT 27/13 A3016 RMK A01 T02740134  RH  044%=      5-min Rain = 0
KLBW 090145Z 13009KT 27/13 A3016 RMK A01 T02740132  RH  043%=      5-min Rain = 0
KLBW 090150Z 13009G14KT 27/13 A3016 RMK A01 T02720133  RH  044%=      5-min Rain = 0
KLBW 090155Z 13011KT 27/13 A3017 RMK A01 T02720133  RH  044%=      5-min Rain = 0
KLBW 090200Z 13008G14KT 27/13 A3017 RMK A01 T02700134  RH  045%=      5-min Rain = 0
KLBW 090205Z 13009G14KT 27/14 A3017 RMK A01 T02690135  RH  045%=      5-min Rain = 0
KLBW 090210Z 13008KT 27/14 A3017 RMK A01 T02660136  RH  047%=      5-min Rain = 0
KLBW 090215Z 13008KT 27/14 A3018 RMK A01 T02650137  RH  047%=      5-min Rain = 0
KLBW 090220Z 13009KT 26/14 A3018 RMK A01 T02640138  RH  048%=      5-min Rain = 0
KLBW 090225Z 13008KT 26/14 A3018 RMK A01 T02640139  RH  048%=      5-min Rain = 0
KLBW 090230Z 13006KT 26/14 A3019 RMK A01 T02610140  RH  049%=      5-min Rain = 0
KLBW 090235Z 13006KT 26/14 A3019 RMK A01 T02600140  RH  049%=      5-min Rain = 0
KLBW 090240Z 14006KT 26/14 A3019 RMK A01 T02590140  RH  050%=      5-min Rain = 0
KLBW 090245Z 13007KT 26/14 A3019 RMK A01 T02590139  RH  050%=      5-min Rain = 0
KLBW 090250Z 13007KT 26/14 A3019 RMK A01 T02600140  RH  050%=      5-min Rain = 0
KLBW 090255Z 13006KT 26/14 A3019 RMK A01 T02580141  RH  050%=      5-min Rain = 0
KLBW 090300Z 13006KT 26/14 A3019 RMK A01 T02570142  RH  051%=      5-min Rain = 0
KLBW 090305Z 13006KT 26/14 A3019 RMK A01 T02560144  RH  052%=      5-min Rain = 0
KLBW 090310Z 13005KT 26/15 A3019 RMK A01 T02550145  RH  053%=      5-min Rain = 0
KLBW 090315Z 14005KT 25/15 A3019 RMK A01 T02530146  RH  054%=      5-min Rain = 0
KLBW 090320Z 14006KT 25/15 A302 RMK A01 T02520147  RH  054%=      5-min Rain = 0
KLBW 090325Z 13005KT 25/15 A302 RMK A01 T02510149  RH  055%=      5-min Rain = 0
KLBW 090330Z 14005KT 25/15 A302 RMK A01 T02500149  RH  056%=      5-min Rain = 0
KLBW 090335Z 14005KT 25/15 A302 RMK A01 T02490150  RH  057%=      5-min Rain = 0
KLBW 090340Z 13006KT 25/15 A302 RMK A01 T02480151  RH  057%=      5-min Rain = 0
KLBW 090345Z 13006KT 25/15 A3021 RMK A01 T02480152  RH  058%=      5-min Rain = 0
KLBW 090350Z 13005KT 25/15 A3021 RMK A01 T02480152  RH  057%=      5-min Rain = 0
KLBW 090355Z 12006KT 25/15 A3021 RMK A01 T02480153  RH  058%=      5-min Rain = 0
KLBW 090400Z 12005KT 25/15 A3021 RMK A01 T02480153  RH  058%=      5-min Rain = 0
KLBW 090405Z 12006KT 25/15 A3021 RMK A01 T02480152  RH  058%=      5-min Rain = 0
KLBW 090410Z 12005KT 25/15 A3021 RMK A01 T02470152  RH  058%=      5-min Rain = 0
KLBW 090415Z 12007KT 25/15 A3022 RMK A01 T02480151  RH  057%=      5-min Rain = 0
KLBW 090420Z 12006KT 25/15 A3022 RMK A01 T02470150  RH  057%=      5-min Rain = 0
KLBW 090425Z 12006KT 25/15 A3022 RMK A01 T02460150  RH  058%=      5-min Rain = 0
KLBW 090430Z 12006KT 25/15 A3022 RMK A01 T02460150  RH  058%=      5-min Rain = 0
KLBW 090435Z 12005KT 24/15 A3022 RMK A01 T02440152  RH  059%=      5-min Rain = 0
KLBW 090440Z 11005KT 24/15 A3022 RMK A01 T02420152  RH  060%=      5-min Rain = 0
KLBW 090445Z 11005KT 24/15 A3022 RMK A01 T02400151  RH  060%=      5-min Rain = 0
KLBW 090450Z 11005KT 24/15 A3022 RMK A01 T02410151  RH  060%=      5-min Rain = 0
KLBW 090455Z 11005KT 24/15 A3022 RMK A01 T02400150  RH  060%=      5-min Rain = 0

Page generated in 0.0144 seconds.